sensor_id;sensor_type;location;lat;lon;timestamp;temperature;humidity
8979;DHT22;4524;51.364;5.448;2023-12-29T00:01:47;11.60;99.90
8979;DHT22;4524;51.364;5.448;2023-12-29T00:04:15;11.60;99.90
8979;DHT22;4524;51.364;5.448;2023-12-29T00:06:46;11.60;99.90
8979;DHT22;4524;51.364;5.448;2023-12-29T00:09:26;11.60;99.90
8979;DHT22;4524;51.364;5.448;2023-12-29T00:11:56;11.60;99.90
8979;DHT22;4524;51.364;5.448;2023-12-29T00:14:24;11.60;99.90
8979;DHT22;4524;51.364;5.448;2023-12-29T00:16:54;11.60;99.90
8979;DHT22;4524;51.364;5.448;2023-12-29T00:19:25;11.60;99.90
8979;DHT22;4524;51.364;5.448;2023-12-29T00:21:53;11.70;99.90
8979;DHT22;4524;51.364;5.448;2023-12-29T00:24:22;11.60;99.90
8979;DHT22;4524;51.364;5.448;2023-12-29T00:26:51;11.60;99.90
8979;DHT22;4524;51.364;5.448;2023-12-29T00:29:21;11.70;99.90
8979;DHT22;4524;51.364;5.448;2023-12-29T00:31:50;11.70;99.90
8979;DHT22;4524;51.364;5.448;2023-12-29T00:34:21;11.70;99.90
8979;DHT22;4524;51.364;5.448;2023-12-29T00:36:52;11.70;99.90
8979;DHT22;4524;51.364;5.448;2023-12-29T00:39:21;11.60;99.90
8979;DHT22;4524;51.364;5.448;2023-12-29T00:41:56;11.60;99.90
8979;DHT22;4524;51.364;5.448;2023-12-29T00:44:26;11.60;99.90
8979;DHT22;4524;51.364;5.448;2023-12-29T00:46:59;11.60;99.90
8979;DHT22;4524;51.364;5.448;2023-12-29T00:49:28;11.60;99.90
8979;DHT22;4524;51.364;5.448;2023-12-29T00:51:57;11.60;99.90
8979;DHT22;4524;51.364;5.448;2023-12-29T00:54:29;11.60;99.90
8979;DHT22;4524;51.364;5.448;2023-12-29T00:56:57;11.60;99.90
8979;DHT22;4524;51.364;5.448;2023-12-29T00:59:30;11.60;99.90
8979;DHT22;4524;51.364;5.448;2023-12-29T01:01:59;11.60;99.90
8979;DHT22;4524;51.364;5.448;2023-12-29T01:04:29;11.60;99.90
8979;DHT22;4524;51.364;5.448;2023-12-29T01:06:59;11.40;99.90
8979;DHT22;4524;51.364;5.448;2023-12-29T01:09:27;11.40;99.90
8979;DHT22;4524;51.364;5.448;2023-12-29T01:11:56;11.30;99.90
8979;DHT22;4524;51.364;5.448;2023-12-29T01:14:24;11.20;99.90
8979;DHT22;4524;51.364;5.448;2023-12-29T01:16:54;11.10;99.90
8979;DHT22;4524;51.364;5.448;2023-12-29T01:19:23;11.10;99.90
8979;DHT22;4524;51.364;5.448;2023-12-29T01:21:54;11.10;99.90
8979;DHT22;4524;51.364;5.448;2023-12-29T01:24:24;11.00;99.90
8979;DHT22;4524;51.364;5.448;2023-12-29T01:27:06;10.70;99.90
8979;DHT22;4524;51.364;5.448;2023-12-29T01:29:35;10.70;99.90
8979;DHT22;4524;51.364;5.448;2023-12-29T01:32:08;10.70;99.90
8979;DHT22;4524;51.364;5.448;2023-12-29T01:34:38;10.70;99.90
8979;DHT22;4524;51.364;5.448;2023-12-29T01:37:07;10.70;99.90
8979;DHT22;4524;51.364;5.448;2023-12-29T01:39:36;10.70;99.90
8979;DHT22;4524;51.364;5.448;2023-12-29T01:42:07;10.60;99.90
8979;DHT22;4524;51.364;5.448;2023-12-29T01:44:36;10.60;99.90
8979;DHT22;4524;51.364;5.448;2023-12-29T01:47:12;10.60;99.90
8979;DHT22;4524;51.364;5.448;2023-12-29T01:49:43;10.60;99.90
8979;DHT22;4524;51.364;5.448;2023-12-29T01:52:16;10.60;99.90
8979;DHT22;4524;51.364;5.448;2023-12-29T01:54:46;10.60;99.90
8979;DHT22;4524;51.364;5.448;2023-12-29T01:57:18;10.60;99.90
8979;DHT22;4524;51.364;5.448;2023-12-29T01:59:48;10.70;99.90
8979;DHT22;4524;51.364;5.448;2023-12-29T02:02:18;10.60;99.90
8979;DHT22;4524;51.364;5.448;2023-12-29T02:04:47;10.60;99.90
8979;DHT22;4524;51.364;5.448;2023-12-29T02:07:16;10.60;99.90
8979;DHT22;4524;51.364;5.448;2023-12-29T02:09:46;10.60;99.90
8979;DHT22;4524;51.364;5.448;2023-12-29T02:12:16;10.60;99.90
8979;DHT22;4524;51.364;5.448;2023-12-29T02:14:47;10.60;99.90
8979;DHT22;4524;51.364;5.448;2023-12-29T02:17:22;10.70;99.90
8979;DHT22;4524;51.364;5.448;2023-12-29T02:19:53;10.70;99.90
8979;DHT22;4524;51.364;5.448;2023-12-29T02:22:26;10.80;99.90
8979;DHT22;4524;51.364;5.448;2023-12-29T02:24:56;10.80;99.90
8979;DHT22;4524;51.364;5.448;2023-12-29T02:27:30;10.80;99.90
8979;DHT22;4524;51.364;5.448;2023-12-29T02:30:10;10.80;99.90
8979;DHT22;4524;51.364;5.448;2023-12-29T02:32:41;10.90;99.90
8979;DHT22;4524;51.364;5.448;2023-12-29T02:35:13;10.90;99.90
8979;DHT22;4524;51.364;5.448;2023-12-29T02:37:48;10.90;99.90
8979;DHT22;4524;51.364;5.448;2023-12-29T02:40:20;11.00;99.90
8979;DHT22;4524;51.364;5.448;2023-12-29T02:42:49;11.00;99.90
8979;DHT22;4524;51.364;5.448;2023-12-29T02:45:18;11.00;99.90
8979;DHT22;4524;51.364;5.448;2023-12-29T02:47:48;11.00;99.90
8979;DHT22;4524;51.364;5.448;2023-12-29T02:50:17;11.10;99.90
8979;DHT22;4524;51.364;5.448;2023-12-29T02:52:46;11.10;99.90
8979;DHT22;4524;51.364;5.448;2023-12-29T02:55:15;11.10;99.90
8979;DHT22;4524;51.364;5.448;2023-12-29T02:57:47;11.10;99.90
8979;DHT22;4524;51.364;5.448;2023-12-29T03:00:16;11.10;99.90
8979;DHT22;4524;51.364;5.448;2023-12-29T03:02:45;11.10;99.90
8979;DHT22;4524;51.364;5.448;2023-12-29T03:05:15;11.10;99.90
8979;DHT22;4524;51.364;5.448;2023-12-29T03:07:48;11.10;99.90
8979;DHT22;4524;51.364;5.448;2023-12-29T03:10:17;11.10;99.90
8979;DHT22;4524;51.364;5.448;2023-12-29T03:12:47;11.00;99.90
8979;DHT22;4524;51.364;5.448;2023-12-29T03:15:16;11.00;99.90
8979;DHT22;4524;51.364;5.448;2023-12-29T03:17:44;11.00;99.90
8979;DHT22;4524;51.364;5.448;2023-12-29T03:20:17;11.00;99.90
8979;DHT22;4524;51.364;5.448;2023-12-29T03:22:45;11.00;99.90
8979;DHT22;4524;51.364;5.448;2023-12-29T03:25:14;11.00;99.90
8979;DHT22;4524;51.364;5.448;2023-12-29T03:27:43;11.00;99.90
8979;DHT22;4524;51.364;5.448;2023-12-29T03:30:14;11.00;99.90
8979;DHT22;4524;51.364;5.448;2023-12-29T03:32:43;11.00;99.90
8979;DHT22;4524;51.364;5.448;2023-12-29T03:35:12;11.10;99.90
8979;DHT22;4524;51.364;5.448;2023-12-29T03:37:41;11.10;99.90
8979;DHT22;4524;51.364;5.448;2023-12-29T03:40:10;11.10;99.90
8979;DHT22;4524;51.364;5.448;2023-12-29T03:42:40;11.10;99.90
8979;DHT22;4524;51.364;5.448;2023-12-29T03:45:09;11.10;99.90
8979;DHT22;4524;51.364;5.448;2023-12-29T03:47:41;11.20;99.90
8979;DHT22;4524;51.364;5.448;2023-12-29T03:50:11;11.20;99.90
8979;DHT22;4524;51.364;5.448;2023-12-29T03:52:40;11.20;99.90
8979;DHT22;4524;51.364;5.448;2023-12-29T03:55:10;11.20;99.90
8979;DHT22;4524;51.364;5.448;2023-12-29T03:57:39;11.20;99.90
8979;DHT22;4524;51.364;5.448;2023-12-29T04:00:14;11.20;99.90
8979;DHT22;4524;51.364;5.448;2023-12-29T04:02:44;11.20;99.90
8979;DHT22;4524;51.364;5.448;2023-12-29T04:05:14;11.20;99.90
8979;DHT22;4524;51.364;5.448;2023-12-29T04:07:43;11.20;99.90
8979;DHT22;4524;51.364;5.448;2023-12-29T04:10:12;11.20;99.90
8979;DHT22;4524;51.364;5.448;2023-12-29T04:12:43;11.20;99.90
8979;DHT22;4524;51.364;5.448;2023-12-29T04:15:12;11.20;99.90
8979;DHT22;4524;51.364;5.448;2023-12-29T04:17:41;11.20;99.90
8979;DHT22;4524;51.364;5.448;2023-12-29T04:20:11;11.20;99.90
8979;DHT22;4524;51.364;5.448;2023-12-29T04:22:39;11.20;99.90
8979;DHT22;4524;51.364;5.448;2023-12-29T04:25:10;11.20;99.90
8979;DHT22;4524;51.364;5.448;2023-12-29T04:27:40;11.20;99.90
8979;DHT22;4524;51.364;5.448;2023-12-29T04:30:10;11.20;99.90
8979;DHT22;4524;51.364;5.448;2023-12-29T04:32:40;11.20;99.90
8979;DHT22;4524;51.364;5.448;2023-12-29T04:35:11;11.20;99.90
8979;DHT22;4524;51.364;5.448;2023-12-29T04:37:44;11.20;99.90
8979;DHT22;4524;51.364;5.448;2023-12-29T04:40:13;11.20;99.90
8979;DHT22;4524;51.364;5.448;2023-12-29T04:42:42;11.20;99.90
8979;DHT22;4524;51.364;5.448;2023-12-29T04:45:10;11.10;99.90
8979;DHT22;4524;51.364;5.448;2023-12-29T04:47:39;11.20;99.90
8979;DHT22;4524;51.364;5.448;2023-12-29T04:50:12;11.10;99.90
8979;DHT22;4524;51.364;5.448;2023-12-29T04:52:40;11.10;99.90
8979;DHT22;4524;51.364;5.448;2023-12-29T04:55:09;11.10;99.90
8979;DHT22;4524;51.364;5.448;2023-12-29T04:57:38;11.10;99.90
8979;DHT22;4524;51.364;5.448;2023-12-29T05:00:09;11.10;99.90
8979;DHT22;4524;51.364;5.448;2023-12-29T05:02:38;11.10;99.90
8979;DHT22;4524;51.364;5.448;2023-12-29T05:05:06;11.00;99.90
8979;DHT22;4524;51.364;5.448;2023-12-29T05:07:36;11.00;99.90
8979;DHT22;4524;51.364;5.448;2023-12-29T05:10:07;11.00;99.90
8979;DHT22;4524;51.364;5.448;2023-12-29T05:12:36;11.00;99.90
8979;DHT22;4524;51.364;5.448;2023-12-29T05:15:06;11.00;99.90
8979;DHT22;4524;51.364;5.448;2023-12-29T05:17:35;11.00;99.90
8979;DHT22;4524;51.364;5.448;2023-12-29T05:20:03;11.00;99.90
8979;DHT22;4524;51.364;5.448;2023-12-29T05:22:32;11.00;99.90
8979;DHT22;4524;51.364;5.448;2023-12-29T05:25:02;11.00;99.90
8979;DHT22;4524;51.364;5.448;2023-12-29T05:27:41;11.00;99.90
8979;DHT22;4524;51.364;5.448;2023-12-29T05:30:10;11.10;99.90
8979;DHT22;4524;51.364;5.448;2023-12-29T05:32:40;11.00;99.90
8979;DHT22;4524;51.364;5.448;2023-12-29T05:35:09;11.00;99.90
8979;DHT22;4524;51.364;5.448;2023-12-29T05:37:38;11.00;99.90
8979;DHT22;4524;51.364;5.448;2023-12-29T05:40:10;11.00;99.90
8979;DHT22;4524;51.364;5.448;2023-12-29T05:42:39;11.00;99.90
8979;DHT22;4524;51.364;5.448;2023-12-29T05:45:08;11.00;99.90
8979;DHT22;4524;51.364;5.448;2023-12-29T05:47:38;11.00;99.90
8979;DHT22;4524;51.364;5.448;2023-12-29T05:50:07;11.00;99.90
8979;DHT22;4524;51.364;5.448;2023-12-29T05:52:36;11.00;99.90
8979;DHT22;4524;51.364;5.448;2023-12-29T05:55:06;11.00;99.90
8979;DHT22;4524;51.364;5.448;2023-12-29T05:57:38;11.00;99.90
8979;DHT22;4524;51.364;5.448;2023-12-29T06:00:09;11.00;99.90
8979;DHT22;4524;51.364;5.448;2023-12-29T06:02:41;11.00;99.90
8979;DHT22;4524;51.364;5.448;2023-12-29T06:05:11;11.00;99.90
8979;DHT22;4524;51.364;5.448;2023-12-29T06:07:41;11.00;99.90
8979;DHT22;4524;51.364;5.448;2023-12-29T06:10:11;11.00;99.90
8979;DHT22;4524;51.364;5.448;2023-12-29T06:12:41;11.00;99.90
8979;DHT22;4524;51.364;5.448;2023-12-29T06:15:12;10.90;99.90
8979;DHT22;4524;51.364;5.448;2023-12-29T06:17:43;10.90;99.90
8979;DHT22;4524;51.364;5.448;2023-12-29T06:20:12;10.90;99.90
8979;DHT22;4524;51.364;5.448;2023-12-29T06:22:41;10.90;99.90
8979;DHT22;4524;51.364;5.448;2023-12-29T06:25:10;10.90;99.90
8979;DHT22;4524;51.364;5.448;2023-12-29T06:27:41;10.80;99.90
8979;DHT22;4524;51.364;5.448;2023-12-29T06:30:11;10.70;99.90
8979;DHT22;4524;51.364;5.448;2023-12-29T06:32:41;10.70;99.90
8979;DHT22;4524;51.364;5.448;2023-12-29T06:35:09;10.60;99.90
8979;DHT22;4524;51.364;5.448;2023-12-29T06:37:39;10.60;99.90
8979;DHT22;4524;51.364;5.448;2023-12-29T06:40:09;10.60;99.90
8979;DHT22;4524;51.364;5.448;2023-12-29T06:42:38;10.60;99.90
8979;DHT22;4524;51.364;5.448;2023-12-29T06:45:12;10.60;99.90
8979;DHT22;4524;51.364;5.448;2023-12-29T06:47:40;10.60;99.90
8979;DHT22;4524;51.364;5.448;2023-12-29T06:50:10;10.60;99.90
8979;DHT22;4524;51.364;5.448;2023-12-29T06:52:40;10.60;99.90
8979;DHT22;4524;51.364;5.448;2023-12-29T06:55:12;10.70;99.90
8979;DHT22;4524;51.364;5.448;2023-12-29T06:57:40;10.60;99.90
8979;DHT22;4524;51.364;5.448;2023-12-29T07:00:11;10.70;99.90
8979;DHT22;4524;51.364;5.448;2023-12-29T07:02:40;10.70;99.90
8979;DHT22;4524;51.364;5.448;2023-12-29T07:05:10;10.70;99.90
8979;DHT22;4524;51.364;5.448;2023-12-29T07:07:38;10.60;99.90
8979;DHT22;4524;51.364;5.448;2023-12-29T07:10:08;10.70;99.90
8979;DHT22;4524;51.364;5.448;2023-12-29T07:12:41;10.70;99.90
8979;DHT22;4524;51.364;5.448;2023-12-29T07:15:12;10.80;99.90
8979;DHT22;4524;51.364;5.448;2023-12-29T07:17:42;10.70;99.90
8979;DHT22;4524;51.364;5.448;2023-12-29T07:20:11;10.70;99.90
8979;DHT22;4524;51.364;5.448;2023-12-29T07:22:40;10.70;99.90
8979;DHT22;4524;51.364;5.448;2023-12-29T07:25:10;10.80;99.90
8979;DHT22;4524;51.364;5.448;2023-12-29T07:27:40;10.80;99.90
8979;DHT22;4524;51.364;5.448;2023-12-29T07:30:12;10.80;99.90
8979;DHT22;4524;51.364;5.448;2023-12-29T07:32:41;10.80;99.90
8979;DHT22;4524;51.364;5.448;2023-12-29T07:35:11;10.70;99.90
8979;DHT22;4524;51.364;5.448;2023-12-29T07:37:44;10.80;99.90
8979;DHT22;4524;51.364;5.448;2023-12-29T07:40:14;10.70;99.90
8979;DHT22;4524;51.364;5.448;2023-12-29T07:42:45;10.80;99.90
8979;DHT22;4524;51.364;5.448;2023-12-29T07:45:19;10.70;99.90
8979;DHT22;4524;51.364;5.448;2023-12-29T07:47:48;10.70;99.90
8979;DHT22;4524;51.364;5.448;2023-12-29T07:50:17;10.70;99.90
8979;DHT22;4524;51.364;5.448;2023-12-29T07:52:47;10.70;99.90
8979;DHT22;4524;51.364;5.448;2023-12-29T07:55:16;10.60;99.90
8979;DHT22;4524;51.364;5.448;2023-12-29T07:57:46;10.60;99.90
8979;DHT22;4524;51.364;5.448;2023-12-29T08:00:16;10.70;99.90
8979;DHT22;4524;51.364;5.448;2023-12-29T08:02:45;10.70;99.90
8979;DHT22;4524;51.364;5.448;2023-12-29T08:05:14;10.70;99.90
8979;DHT22;4524;51.364;5.448;2023-12-29T08:07:44;10.70;99.90
8979;DHT22;4524;51.364;5.448;2023-12-29T08:10:12;10.70;99.90
8979;DHT22;4524;51.364;5.448;2023-12-29T08:12:41;10.70;99.90
8979;DHT22;4524;51.364;5.448;2023-12-29T08:15:10;10.70;99.90
8979;DHT22;4524;51.364;5.448;2023-12-29T08:17:47;10.70;99.90
8979;DHT22;4524;51.364;5.448;2023-12-29T08:20:16;10.70;99.90
8979;DHT22;4524;51.364;5.448;2023-12-29T08:22:52;10.70;99.90
8979;DHT22;4524;51.364;5.448;2023-12-29T08:25:21;10.70;99.90
8979;DHT22;4524;51.364;5.448;2023-12-29T08:27:51;10.70;99.90
8979;DHT22;4524;51.364;5.448;2023-12-29T08:30:19;10.60;99.90
8979;DHT22;4524;51.364;5.448;2023-12-29T08:32:50;10.70;99.90
8979;DHT22;4524;51.364;5.448;2023-12-29T08:35:18;10.70;99.90
8979;DHT22;4524;51.364;5.448;2023-12-29T08:37:47;10.70;99.90
8979;DHT22;4524;51.364;5.448;2023-12-29T08:40:17;10.70;99.90
8979;DHT22;4524;51.364;5.448;2023-12-29T08:42:46;10.70;99.90
8979;DHT22;4524;51.364;5.448;2023-12-29T08:45:15;10.70;99.90
8979;DHT22;4524;51.364;5.448;2023-12-29T08:47:44;10.70;99.90
8979;DHT22;4524;51.364;5.448;2023-12-29T08:50:14;10.70;99.90
8979;DHT22;4524;51.364;5.448;2023-12-29T08:52:46;10.60;99.90
8979;DHT22;4524;51.364;5.448;2023-12-29T08:55:14;10.70;99.90
8979;DHT22;4524;51.364;5.448;2023-12-29T08:57:43;10.70;99.90
8979;DHT22;4524;51.364;5.448;2023-12-29T09:00:12;10.70;99.90
8979;DHT22;4524;51.364;5.448;2023-12-29T09:02:41;10.60;99.90
8979;DHT22;4524;51.364;5.448;2023-12-29T09:05:10;10.60;99.90
8979;DHT22;4524;51.364;5.448;2023-12-29T09:07:41;10.60;99.90
8979;DHT22;4524;51.364;5.448;2023-12-29T09:10:09;10.50;99.90
8979;DHT22;4524;51.364;5.448;2023-12-29T09:12:40;10.60;99.90
8979;DHT22;4524;51.364;5.448;2023-12-29T09:15:09;10.60;99.90
8979;DHT22;4524;51.364;5.448;2023-12-29T09:17:37;10.60;99.90
8979;DHT22;4524;51.364;5.448;2023-12-29T09:20:07;10.50;99.90
8979;DHT22;4524;51.364;5.448;2023-12-29T09:22:37;10.50;99.90
8979;DHT22;4524;51.364;5.448;2023-12-29T09:25:08;10.60;99.90
8979;DHT22;4524;51.364;5.448;2023-12-29T09:27:38;10.60;99.90
8979;DHT22;4524;51.364;5.448;2023-12-29T09:30:07;10.70;99.90
8979;DHT22;4524;51.364;5.448;2023-12-29T09:32:38;10.60;99.90
8979;DHT22;4524;51.364;5.448;2023-12-29T09:35:07;10.70;99.90
8979;DHT22;4524;51.364;5.448;2023-12-29T09:37:36;10.70;99.90
8979;DHT22;4524;51.364;5.448;2023-12-29T09:40:09;10.80;99.90
8979;DHT22;4524;51.364;5.448;2023-12-29T09:42:38;10.80;99.90
8979;DHT22;4524;51.364;5.448;2023-12-29T09:45:10;10.80;99.90
8979;DHT22;4524;51.364;5.448;2023-12-29T09:47:40;10.80;99.90
8979;DHT22;4524;51.364;5.448;2023-12-29T09:50:11;10.80;99.90
8979;DHT22;4524;51.364;5.448;2023-12-29T09:52:40;10.90;99.90
8979;DHT22;4524;51.364;5.448;2023-12-29T09:55:11;10.90;99.90
8979;DHT22;4524;51.364;5.448;2023-12-29T09:57:40;10.90;99.90
8979;DHT22;4524;51.364;5.448;2023-12-29T10:00:11;10.90;99.90
8979;DHT22;4524;51.364;5.448;2023-12-29T10:02:40;10.90;99.90
8979;DHT22;4524;51.364;5.448;2023-12-29T10:05:09;10.90;99.90
8979;DHT22;4524;51.364;5.448;2023-12-29T10:07:40;10.90;99.90
8979;DHT22;4524;51.364;5.448;2023-12-29T10:10:15;10.90;99.90
8979;DHT22;4524;51.364;5.448;2023-12-29T10:12:47;10.80;99.90
8979;DHT22;4524;51.364;5.448;2023-12-29T10:15:19;10.90;99.90
8979;DHT22;4524;51.364;5.448;2023-12-29T10:17:52;10.90;99.90
8979;DHT22;4524;51.364;5.448;2023-12-29T10:20:36;10.90;99.90
8979;DHT22;4524;51.364;5.448;2023-12-29T10:23:19;10.90;99.90
8979;DHT22;4524;51.364;5.448;2023-12-29T10:25:51;10.90;99.90
8979;DHT22;4524;51.364;5.448;2023-12-29T10:28:20;11.00;99.90
8979;DHT22;4524;51.364;5.448;2023-12-29T10:30:49;10.90;99.90
8979;DHT22;4524;51.364;5.448;2023-12-29T10:33:21;11.10;99.90
8979;DHT22;4524;51.364;5.448;2023-12-29T10:35:58;11.10;99.90
8979;DHT22;4524;51.364;5.448;2023-12-29T10:38:30;11.10;99.90
8979;DHT22;4524;51.364;5.448;2023-12-29T10:41:15;11.20;99.90
8979;DHT22;4524;51.364;5.448;2023-12-29T10:43:48;11.20;99.90
8979;DHT22;4524;51.364;5.448;2023-12-29T10:46:19;11.20;99.90
8979;DHT22;4524;51.364;5.448;2023-12-29T10:48:48;11.20;99.90
8979;DHT22;4524;51.364;5.448;2023-12-29T10:51:27;11.20;99.90
8979;DHT22;4524;51.364;5.448;2023-12-29T10:53:57;11.30;99.90
8979;DHT22;4524;51.364;5.448;2023-12-29T10:56:27;11.30;99.90
8979;DHT22;4524;51.364;5.448;2023-12-29T10:58:59;11.40;99.90
8979;DHT22;4524;51.364;5.448;2023-12-29T11:01:29;11.40;99.90
8979;DHT22;4524;51.364;5.448;2023-12-29T11:04:00;11.50;99.90
8979;DHT22;4524;51.364;5.448;2023-12-29T11:06:40;11.50;99.90
8979;DHT22;4524;51.364;5.448;2023-12-29T11:09:10;11.40;99.90
8979;DHT22;4524;51.364;5.448;2023-12-29T11:11:43;11.50;99.90
8979;DHT22;4524;51.364;5.448;2023-12-29T11:14:12;11.50;99.90
8979;DHT22;4524;51.364;5.448;2023-12-29T11:16:41;11.50;99.90
8979;DHT22;4524;51.364;5.448;2023-12-29T11:19:11;11.50;99.90
8979;DHT22;4524;51.364;5.448;2023-12-29T11:21:42;11.60;99.90
8979;DHT22;4524;51.364;5.448;2023-12-29T11:24:12;11.60;99.90
8979;DHT22;4524;51.364;5.448;2023-12-29T11:26:50;11.60;99.90
8979;DHT22;4524;51.364;5.448;2023-12-29T11:29:22;11.60;99.90
8979;DHT22;4524;51.364;5.448;2023-12-29T11:31:55;11.70;99.90
8979;DHT22;4524;51.364;5.448;2023-12-29T11:34:37;11.60;99.90
8979;DHT22;4524;51.364;5.448;2023-12-29T11:37:26;11.60;99.90
8979;DHT22;4524;51.364;5.448;2023-12-29T11:40:09;11.60;99.90
8979;DHT22;4524;51.364;5.448;2023-12-29T11:42:43;11.60;99.90
8979;DHT22;4524;51.364;5.448;2023-12-29T11:45:28;11.60;99.90
8979;DHT22;4524;51.364;5.448;2023-12-29T11:47:59;11.40;99.90
8979;DHT22;4524;51.364;5.448;2023-12-29T11:50:31;11.50;99.90
8979;DHT22;4524;51.364;5.448;2023-12-29T11:53:01;11.50;99.90
8979;DHT22;4524;51.364;5.448;2023-12-29T11:55:34;11.50;99.90
8979;DHT22;4524;51.364;5.448;2023-12-29T11:58:17;11.40;99.90
8979;DHT22;4524;51.364;5.448;2023-12-29T12:01:02;11.50;99.90
8979;DHT22;4524;51.364;5.448;2023-12-29T12:03:32;11.50;99.90
8979;DHT22;4524;51.364;5.448;2023-12-29T12:06:03;11.50;99.90
8979;DHT22;4524;51.364;5.448;2023-12-29T12:08:33;11.60;99.90
8979;DHT22;4524;51.364;5.448;2023-12-29T12:14:11;11.60;99.90
8979;DHT22;4524;51.364;5.448;2023-12-29T12:16:59;11.60;99.90
8979;DHT22;4524;51.364;5.448;2023-12-29T12:19:32;11.70;99.90
8979;DHT22;4524;51.364;5.448;2023-12-29T12:22:02;11.50;99.90
8979;DHT22;4524;51.364;5.448;2023-12-29T12:24:36;11.50;99.90
8979;DHT22;4524;51.364;5.448;2023-12-29T12:27:09;11.50;99.90
8979;DHT22;4524;51.364;5.448;2023-12-29T12:29:40;11.50;99.90
8979;DHT22;4524;51.364;5.448;2023-12-29T12:32:10;11.50;99.90
8979;DHT22;4524;51.364;5.448;2023-12-29T12:34:39;11.50;99.90
8979;DHT22;4524;51.364;5.448;2023-12-29T12:37:09;11.60;99.90
8979;DHT22;4524;51.364;5.448;2023-12-29T12:39:41;11.60;99.90
8979;DHT22;4524;51.364;5.448;2023-12-29T12:42:12;11.70;99.90
8979;DHT22;4524;51.364;5.448;2023-12-29T12:44:48;11.70;99.90
8979;DHT22;4524;51.364;5.448;2023-12-29T12:47:25;11.70;99.90
8979;DHT22;4524;51.364;5.448;2023-12-29T12:49:55;11.70;99.90
8979;DHT22;4524;51.364;5.448;2023-12-29T12:52:25;11.80;99.90
8979;DHT22;4524;51.364;5.448;2023-12-29T12:54:54;11.80;99.90
8979;DHT22;4524;51.364;5.448;2023-12-29T12:57:24;11.80;99.90
8979;DHT22;4524;51.364;5.448;2023-12-29T12:59:54;11.80;99.90
8979;DHT22;4524;51.364;5.448;2023-12-29T13:02:24;11.90;99.90
8979;DHT22;4524;51.364;5.448;2023-12-29T13:04:53;11.80;99.90
8979;DHT22;4524;51.364;5.448;2023-12-29T13:07:23;11.90;99.90
8979;DHT22;4524;51.364;5.448;2023-12-29T13:10:04;11.90;99.90
8979;DHT22;4524;51.364;5.448;2023-12-29T13:12:34;11.90;99.90
8979;DHT22;4524;51.364;5.448;2023-12-29T13:15:09;11.90;99.90
8979;DHT22;4524;51.364;5.448;2023-12-29T13:17:38;12.00;99.90
8979;DHT22;4524;51.364;5.448;2023-12-29T13:20:10;12.00;99.90
8979;DHT22;4524;51.364;5.448;2023-12-29T13:22:41;12.00;99.90
8979;DHT22;4524;51.364;5.448;2023-12-29T13:25:18;12.00;99.90
8979;DHT22;4524;51.364;5.448;2023-12-29T13:27:48;12.00;99.90
8979;DHT22;4524;51.364;5.448;2023-12-29T13:30:21;11.90;99.90
8979;DHT22;4524;51.364;5.448;2023-12-29T13:32:51;11.90;99.90
8979;DHT22;4524;51.364;5.448;2023-12-29T13:35:25;11.90;99.90
8979;DHT22;4524;51.364;5.448;2023-12-29T13:38:02;12.00;99.90
8979;DHT22;4524;51.364;5.448;2023-12-29T13:40:35;11.90;99.90
8979;DHT22;4524;51.364;5.448;2023-12-29T13:43:08;11.90;99.90
8979;DHT22;4524;51.364;5.448;2023-12-29T13:45:42;11.90;99.90
8979;DHT22;4524;51.364;5.448;2023-12-29T13:48:13;11.80;99.90
8979;DHT22;4524;51.364;5.448;2023-12-29T13:50:45;11.80;99.90
8979;DHT22;4524;51.364;5.448;2023-12-29T13:53:18;11.80;99.90
8979;DHT22;4524;51.364;5.448;2023-12-29T13:55:48;11.90;99.90
8979;DHT22;4524;51.364;5.448;2023-12-29T13:58:18;11.90;99.90
8979;DHT22;4524;51.364;5.448;2023-12-29T14:00:57;11.80;99.90
8979;DHT22;4524;51.364;5.448;2023-12-29T14:03:31;11.80;99.90
8979;DHT22;4524;51.364;5.448;2023-12-29T14:06:04;11.90;99.90
8979;DHT22;4524;51.364;5.448;2023-12-29T14:08:40;11.90;99.90
8979;DHT22;4524;51.364;5.448;2023-12-29T14:11:10;11.90;99.90
8979;DHT22;4524;51.364;5.448;2023-12-29T14:13:41;11.90;99.90
8979;DHT22;4524;51.364;5.448;2023-12-29T14:16:13;11.70;99.90
8979;DHT22;4524;51.364;5.448;2023-12-29T14:18:53;11.70;99.90
8979;DHT22;4524;51.364;5.448;2023-12-29T14:21:26;11.70;99.90
8979;DHT22;4524;51.364;5.448;2023-12-29T14:24:10;11.70;99.90
8979;DHT22;4524;51.364;5.448;2023-12-29T14:26:41;11.60;99.90
8979;DHT22;4524;51.364;5.448;2023-12-29T14:29:12;11.70;99.90
8979;DHT22;4524;51.364;5.448;2023-12-29T14:31:43;11.60;99.90
8979;DHT22;4524;51.364;5.448;2023-12-29T14:34:13;11.70;99.90
8979;DHT22;4524;51.364;5.448;2023-12-29T14:36:42;11.70;99.90
8979;DHT22;4524;51.364;5.448;2023-12-29T14:39:11;11.70;99.90
8979;DHT22;4524;51.364;5.448;2023-12-29T14:41:40;11.70;99.90
8979;DHT22;4524;51.364;5.448;2023-12-29T14:44:09;11.70;99.90
8979;DHT22;4524;51.364;5.448;2023-12-29T14:46:39;11.70;99.90
8979;DHT22;4524;51.364;5.448;2023-12-29T14:49:12;11.70;99.90
8979;DHT22;4524;51.364;5.448;2023-12-29T14:51:43;11.60;99.90
8979;DHT22;4524;51.364;5.448;2023-12-29T14:54:13;11.50;99.90
8979;DHT22;4524;51.364;5.448;2023-12-29T14:56:41;11.50;99.90
8979;DHT22;4524;51.364;5.448;2023-12-29T14:59:11;11.50;99.90
8979;DHT22;4524;51.364;5.448;2023-12-29T15:01:41;11.50;99.90
8979;DHT22;4524;51.364;5.448;2023-12-29T15:04:13;11.40;99.90
8979;DHT22;4524;51.364;5.448;2023-12-29T15:06:43;11.50;99.90
8979;DHT22;4524;51.364;5.448;2023-12-29T15:09:11;11.50;99.90
8979;DHT22;4524;51.364;5.448;2023-12-29T15:11:40;11.40;99.90
8979;DHT22;4524;51.364;5.448;2023-12-29T15:14:11;11.40;99.90
8979;DHT22;4524;51.364;5.448;2023-12-29T15:16:39;11.40;99.90
8979;DHT22;4524;51.364;5.448;2023-12-29T15:19:08;11.50;99.90
8979;DHT22;4524;51.364;5.448;2023-12-29T15:21:42;11.50;99.90
8979;DHT22;4524;51.364;5.448;2023-12-29T15:24:10;11.40;99.90
8979;DHT22;4524;51.364;5.448;2023-12-29T15:26:39;11.30;99.90
8979;DHT22;4524;51.364;5.448;2023-12-29T15:29:08;11.30;99.90
8979;DHT22;4524;51.364;5.448;2023-12-29T15:31:42;11.30;99.90
8979;DHT22;4524;51.364;5.448;2023-12-29T15:34:13;11.20;99.90
8979;DHT22;4524;51.364;5.448;2023-12-29T15:36:43;11.10;99.90
8979;DHT22;4524;51.364;5.448;2023-12-29T15:39:11;11.00;99.90
8979;DHT22;4524;51.364;5.448;2023-12-29T15:41:42;10.90;99.90
8979;DHT22;4524;51.364;5.448;2023-12-29T15:44:13;10.90;99.90
8979;DHT22;4524;51.364;5.448;2023-12-29T15:46:42;10.90;99.90
8979;DHT22;4524;51.364;5.448;2023-12-29T15:49:11;11.00;99.90
8979;DHT22;4524;51.364;5.448;2023-12-29T15:51:41;11.00;99.90
8979;DHT22;4524;51.364;5.448;2023-12-29T15:54:12;11.00;99.90
8979;DHT22;4524;51.364;5.448;2023-12-29T15:56:43;11.10;99.90
8979;DHT22;4524;51.364;5.448;2023-12-29T15:59:13;11.10;99.90
8979;DHT22;4524;51.364;5.448;2023-12-29T16:01:41;11.10;99.90
8979;DHT22;4524;51.364;5.448;2023-12-29T16:04:10;11.10;99.90
8979;DHT22;4524;51.364;5.448;2023-12-29T16:06:38;11.10;99.90
8979;DHT22;4524;51.364;5.448;2023-12-29T16:09:07;11.10;99.90
8979;DHT22;4524;51.364;5.448;2023-12-29T16:11:39;11.10;99.90
8979;DHT22;4524;51.364;5.448;2023-12-29T16:14:08;11.10;99.90
8979;DHT22;4524;51.364;5.448;2023-12-29T16:16:39;11.10;99.90
8979;DHT22;4524;51.364;5.448;2023-12-29T16:19:11;11.20;99.90
8979;DHT22;4524;51.364;5.448;2023-12-29T16:21:40;11.20;99.90
8979;DHT22;4524;51.364;5.448;2023-12-29T16:24:11;11.10;99.90
8979;DHT22;4524;51.364;5.448;2023-12-29T16:26:45;11.10;99.90
8979;DHT22;4524;51.364;5.448;2023-12-29T16:29:14;11.20;99.90